Time;durP1;ratioP1;P1;durP2;ratioP2;P2;SDS_P1;SDS_P2;PMS_P1;PMS_P2;Temp;Humidity;BMP_temperature;BMP_pressure;BME280_temperature;BME280_humidity;BME280_pressure;Samples;Min_cycle;Max_cycle;Signal;HPM_P1;HPM_P2
2023/07/03 00:00:48;;;;;;;6.35;2.33;;;;;;;;;;5036726;28;20521;-59
2023/07/03 00:03:15;;;;;;;5.18;2.25;;;;;;;;;;5035317;28;20044;-59
2023/07/03 00:05:44;;;;;;;4.15;2.05;;;;;;;;;;5037398;28;20044;-60
2023/07/03 00:08:11;;;;;;;3.58;1.80;;;;;;;;;;5038285;28;20064;-59
2023/07/03 00:10:37;;;;;;;4.55;2.45;;;;;;;;;;5037003;28;20069;-59
2023/07/03 00:13:04;;;;;;;4.95;2.63;;;;;;;;;;5038601;28;20037;-59
2023/07/03 00:15:30;;;;;;;3.88;2.30;;;;;;;;;;5033137;28;20036;-59
2023/07/03 00:17:56;;;;;;;5.00;2.65;;;;;;;;;;5034148;28;20052;-59
2023/07/03 00:20:22;;;;;;;5.40;2.40;;;;;;;;;;5036492;28;20172;-59
2023/07/03 00:22:48;;;;;;;2.53;2.10;;;;;;;;;;5035777;28;20037;-60
2023/07/03 00:25:14;;;;;;;3.55;1.98;;;;;;;;;;5038245;28;20387;-60
2023/07/03 00:27:41;;;;;;;3.35;1.98;;;;;;;;;;5036597;28;20044;-60
2023/07/03 00:30:07;;;;;;;3.17;1.70;;;;;;;;;;5038636;28;20045;-59
2023/07/03 00:32:33;;;;;;;1.83;1.33;;;;;;;;;;5036826;28;20033;-59
2023/07/03 00:34:59;;;;;;;4.88;2.13;;;;;;;;;;5030444;28;20801;-59
2023/07/03 00:37:26;;;;;;;2.22;1.88;;;;;;;;;;5034324;28;20037;-59
2023/07/03 00:39:52;;;;;;;4.57;1.70;;;;;;;;;;5038677;28;20603;-59
2023/07/03 00:42:18;;;;;;;3.17;2.05;;;;;;;;;;5037790;28;20065;-59
2023/07/03 00:44:44;;;;;;;3.65;1.88;;;;;;;;;;5042456;28;20567;-60
2023/07/03 00:47:11;;;;;;;3.20;1.90;;;;;;;;;;5039959;28;20048;-60
2023/07/03 00:49:37;;;;;;;3.10;2.00;;;;;;;;;;5034327;28;20449;-59
2023/07/03 00:52:03;;;;;;;2.25;1.50;;;;;;;;;;5037120;28;20041;-60
2023/07/03 00:54:30;;;;;;;2.10;1.33;;;;;;;;;;5034380;28;20047;-59
2023/07/03 00:56:56;;;;;;;2.40;1.52;;;;;;;;;;5039637;28;20037;-59
2023/07/03 00:59:23;;;;;;;4.40;1.77;;;;;;;;;;5036933;28;20034;-59
2023/07/03 01:01:53;;;;;;;2.65;1.77;;;;;;;;;;5035341;28;20048;-59
2023/07/03 01:04:32;;;;;;;3.28;2.08;;;;;;;;;;5034209;28;20056;-60
2023/07/03 01:07:02;;;;;;;3.05;1.58;;;;;;;;;;5030676;28;20470;-60
2023/07/03 01:09:32;;;;;;;4.30;1.92;;;;;;;;;;5034851;28;20516;-59
2023/07/03 01:11:58;;;;;;;4.30;1.83;;;;;;;;;;5035641;28;20099;-59
2023/07/03 01:14:25;;;;;;;2.42;1.63;;;;;;;;;;5035347;28;20041;-60
2023/07/03 01:16:52;;;;;;;5.45;1.63;;;;;;;;;;5034822;28;20040;-60
2023/07/03 01:19:22;;;;;;;3.70;2.35;;;;;;;;;;5036419;28;20072;-59
2023/07/03 01:21:51;;;;;;;4.13;2.13;;;;;;;;;;5039148;28;20400;-59
2023/07/03 01:24:35;;;;;;;4.13;2.05;;;;;;;;;;5030312;28;20080;-60
2023/07/03 01:27:03;;;;;;;4.20;2.20;;;;;;;;;;5037971;28;20488;-60
2023/07/03 01:29:30;;;;;;;3.22;2.15;;;;;;;;;;5038901;28;20060;-59
2023/07/03 01:31:58;;;;;;;3.22;1.50;;;;;;;;;;5038962;28;20048;-59
2023/07/03 01:34:25;;;;;;;1.90;1.60;;;;;;;;;;5035302;28;20041;-59
2023/07/03 01:36:51;;;;;;;2.50;1.42;;;;;;;;;;5033381;28;20041;-59
2023/07/03 01:39:18;;;;;;;2.92;1.63;;;;;;;;;;5032866;28;20038;-59
2023/07/03 01:41:44;;;;;;;3.13;1.63;;;;;;;;;;5035659;28;20037;-59
2023/07/03 01:44:10;;;;;;;2.83;1.70;;;;;;;;;;5037536;28;20041;-59
2023/07/03 01:46:36;;;;;;;2.97;1.88;;;;;;;;;;5037358;28;20045;-59
2023/07/03 01:49:02;;;;;;;2.53;1.90;;;;;;;;;;5035651;28;20524;-59
2023/07/03 01:51:33;;;;;;;3.42;1.50;;;;;;;;;;5031677;28;20033;-59
2023/07/03 01:54:05;;;;;;;3.97;1.67;;;;;;;;;;5033890;28;20041;-59
2023/07/03 01:56:31;;;;;;;;;;;;;;;;;;5032443;28;20559;-59
2023/07/03 01:59:04;;;;;;;3.35;1.30;;;;;;;;;;5033806;28;19921;-59
2023/07/03 02:01:41;;;;;;;1.35;0.88;;;;;;;;;;5036475;28;20041;-59
2023/07/03 02:04:12;;;;;;;3.10;1.30;;;;;;;;;;5031570;28;20060;-59
2023/07/03 02:06:40;;;;;;;2.88;0.90;;;;;;;;;;5036566;28;20037;-59
2023/07/03 02:09:07;;;;;;;2.53;1.10;;;;;;;;;;5034169;28;20037;-58
2023/07/03 02:11:33;;;;;;;4.10;1.50;;;;;;;;;;5037794;28;20051;-58
2023/07/03 02:13:59;;;;;;;5.05;1.20;;;;;;;;;;5030518;28;20138;-59
2023/07/03 02:16:27;;;;;;;3.05;1.20;;;;;;;;;;5033280;28;20049;-59
2023/07/03 02:18:55;;;;;;;3.35;1.08;;;;;;;;;;5035335;28;20044;-59
2023/07/03 02:21:21;;;;;;;1.98;1.02;;;;;;;;;;5031959;28;20041;-59
2023/07/03 02:23:47;;;;;;;2.75;1.17;;;;;;;;;;5031518;28;20410;-59
2023/07/03 02:26:15;;;;;;;2.53;1.15;;;;;;;;;;5035390;28;20037;-59
2023/07/03 02:28:41;;;;;;;2.90;1.20;;;;;;;;;;5037141;28;20509;-58
2023/07/03 02:31:07;;;;;;;2.10;1.15;;;;;;;;;;5035629;28;20072;-59
2023/07/03 02:33:33;;;;;;;3.70;1.20;;;;;;;;;;5037521;28;20045;-59
2023/07/03 02:36:03;;;;;;;2.90;1.30;;;;;;;;;;5033263;28;20045;-59
2023/07/03 02:38:29;;;;;;;2.45;0.88;;;;;;;;;;5035961;28;20037;-59
2023/07/03 02:40:55;;;;;;;1.55;0.52;;;;;;;;;;5033315;28;20084;-59
2023/07/03 02:43:21;;;;;;;1.88;1.10;;;;;;;;;;5035370;28;20037;-59
2023/07/03 02:45:48;;;;;;;2.35;0.98;;;;;;;;;;5036108;28;20411;-59
2023/07/03 02:48:15;;;;;;;2.80;1.10;;;;;;;;;;5035983;28;20514;-58
2023/07/03 02:50:41;;;;;;;3.15;1.38;;;;;;;;;;5034187;28;20076;-59
2023/07/03 02:53:07;;;;;;;2.65;1.15;;;;;;;;;;5034006;28;20048;-59
2023/07/03 02:55:34;;;;;;;3.45;1.70;;;;;;;;;;5030906;28;20390;-59
2023/07/03 02:58:00;;;;;;;3.00;1.00;;;;;;;;;;5034335;28;20044;-59
2023/07/03 03:00:27;;;;;;;4.13;1.25;;;;;;;;;;5038763;28;20044;-59
2023/07/03 03:02:54;;;;;;;1.45;0.80;;;;;;;;;;5032340;28;20041;-59
2023/07/03 03:05:20;;;;;;;3.40;1.20;;;;;;;;;;5031224;28;20045;-59
2023/07/03 03:07:46;;;;;;;2.65;1.05;;;;;;;;;;5032680;28;20045;-59
2023/07/03 03:10:12;;;;;;;2.65;1.05;;;;;;;;;;5031938;28;20091;-59
2023/07/03 03:12:38;;;;;;;1.90;0.90;;;;;;;;;;5035210;28;20151;-59
2023/07/03 03:15:06;;;;;;;0.90;0.70;;;;;;;;;;5034745;28;20076;-59
2023/07/03 03:17:32;;;;;;;4.85;1.58;;;;;;;;;;5032558;28;20037;-59
2023/07/03 03:19:58;;;;;;;2.42;1.30;;;;;;;;;;5034314;28;20485;-58
2023/07/03 03:22:24;;;;;;;1.50;1.00;;;;;;;;;;5036831;28;20048;-59
2023/07/03 03:24:50;;;;;;;5.78;1.27;;;;;;;;;;5029108;28;20037;-59
2023/07/03 03:27:16;;;;;;;3.40;1.38;;;;;;;;;;5036280;28;20033;-59
2023/07/03 03:29:42;;;;;;;1.38;0.88;;;;;;;;;;5038890;28;20044;-59
2023/07/03 03:32:08;;;;;;;2.83;1.38;;;;;;;;;;5035274;28;20075;-58
2023/07/03 03:34:34;;;;;;;1.45;0.80;;;;;;;;;;5041590;28;20499;-59
2023/07/03 03:37:01;;;;;;;2.95;0.98;;;;;;;;;;5036163;28;20976;-59
2023/07/03 03:39:27;;;;;;;2.50;1.25;;;;;;;;;;5035847;28;20401;-59
2023/07/03 03:41:53;;;;;;;1.00;0.70;;;;;;;;;;5037271;28;20071;-59
2023/07/03 03:44:19;;;;;;;1.85;0.80;;;;;;;;;;5036176;28;20509;-59
2023/07/03 03:46:45;;;;;;;2.05;0.88;;;;;;;;;;5037127;28;20116;-59
2023/07/03 03:49:11;;;;;;;3.65;1.15;;;;;;;;;;5037807;28;20143;-59
2023/07/03 03:51:37;;;;;;;3.50;1.50;;;;;;;;;;5037196;28;20639;-59
2023/07/03 03:54:04;;;;;;;3.08;1.20;;;;;;;;;;5037935;28;20045;-59
2023/07/03 03:56:30;;;;;;;2.28;0.90;;;;;;;;;;5036546;28;20119;-58
2023/07/03 03:58:56;;;;;;;2.80;1.00;;;;;;;;;;5035943;28;20612;-58
2023/07/03 04:01:22;;;;;;;4.60;1.40;;;;;;;;;;5038156;28;20033;-59
2023/07/03 04:03:48;;;;;;;5.22;1.60;;;;;;;;;;5038189;28;20040;-59
2023/07/03 04:06:18;;;;;;;3.88;1.23;;;;;;;;;;5033157;28;20045;-59
2023/07/03 04:08:44;;;;;;;2.28;1.00;;;;;;;;;;5040416;28;20462;-59
2023/07/03 04:11:10;;;;;;;2.90;1.17;;;;;;;;;;5035569;28;20061;-59
2023/07/03 04:13:36;;;;;;;3.55;1.30;;;;;;;;;;5036436;28;20581;-59
2023/07/03 04:16:03;;;;;;;2.33;1.13;;;;;;;;;;5038629;28;20132;-59
2023/07/03 04:18:30;;;;;;;2.58;0.98;;;;;;;;;;5039134;28;20037;-59
2023/07/03 04:20:56;;;;;;;3.20;1.00;;;;;;;;;;5037878;28;20482;-59
2023/07/03 04:23:22;;;;;;;2.42;1.10;;;;;;;;;;5037880;28;20040;-59
2023/07/03 04:25:48;;;;;;;3.67;1.17;;;;;;;;;;5037288;28;20045;-59
2023/07/03 04:28:16;;;;;;;2.47;1.00;;;;;;;;;;5039311;28;20036;-59
2023/07/03 04:30:42;;;;;;;3.78;1.52;;;;;;;;;;5040657;28;20044;-59
2023/07/03 04:33:08;;;;;;;2.17;0.70;;;;;;;;;;5035117;28;20038;-59
2023/07/03 04:35:34;;;;;;;4.68;1.35;;;;;;;;;;5035543;28;20883;-59
2023/07/03 04:38:03;;;;;;;2.40;1.40;;;;;;;;;;5033365;28;20041;-59
2023/07/03 04:40:29;;;;;;;2.95;1.25;;;;;;;;;;5035405;28;20131;-59
2023/07/03 04:42:55;;;;;;;4.15;1.35;;;;;;;;;;5035016;28;20041;-59
2023/07/03 04:45:24;;;;;;;7.65;1.80;;;;;;;;;;5037053;28;20037;-59
2023/07/03 04:47:50;;;;;;;3.67;1.33;;;;;;;;;;5033792;28;20433;-59
2023/07/03 04:50:17;;;;;;;6.15;1.75;;;;;;;;;;5036844;28;20170;-58
2023/07/03 04:52:49;;;;;;;3.60;1.33;;;;;;;;;;5035221;28;20036;-59
2023/07/03 04:55:17;;;;;;;2.55;0.80;;;;;;;;;;5038013;28;20964;-59
2023/07/03 04:57:43;;;;;;;4.20;1.42;;;;;;;;;;5033513;28;20052;-59
2023/07/03 05:00:17;;;;;;;2.00;1.15;;;;;;;;;;5032629;28;20049;-59
2023/07/03 05:02:43;;;;;;;6.53;1.15;;;;;;;;;;5032346;28;20386;-59
2023/07/03 05:05:10;;;;;;;3.40;1.08;;;;;;;;;;5035549;28;20059;-59
2023/07/03 05:07:37;;;;;;;2.92;1.20;;;;;;;;;;5035509;28;20048;-59
2023/07/03 05:10:03;;;;;;;2.80;1.00;;;;;;;;;;5036050;28;20123;-60
2023/07/03 05:12:29;;;;;;;2.45;0.75;;;;;;;;;;5033521;28;20040;-59
2023/07/03 05:14:56;;;;;;;1.40;0.80;;;;;;;;;;5038211;28;20047;-59
2023/07/03 05:17:22;;;;;;;3.33;1.23;;;;;;;;;;5036896;28;20041;-59
2023/07/03 05:19:48;;;;;;;1.85;0.90;;;;;;;;;;5033221;28;20136;-59
2023/07/03 05:22:14;;;;;;;3.90;1.00;;;;;;;;;;5033776;28;20124;-59
2023/07/03 05:24:40;;;;;;;1.25;0.70;;;;;;;;;;5035432;28;20056;-59
2023/07/03 05:27:07;;;;;;;2.85;0.90;;;;;;;;;;5038060;28;20041;-59
2023/07/03 05:29:33;;;;;;;2.17;1.05;;;;;;;;;;5034827;28;20121;-60
2023/07/03 05:32:00;;;;;;;3.63;1.40;;;;;;;;;;5037424;28;20085;-59
2023/07/03 05:34:26;;;;;;;1.98;0.98;;;;;;;;;;5034486;28;20053;-60
2023/07/03 05:36:53;;;;;;;2.97;0.98;;;;;;;;;;5038528;28;20049;-60
2023/07/03 05:39:19;;;;;;;2.00;0.90;;;;;;;;;;5035159;28;20049;-59
2023/07/03 05:41:45;;;;;;;6.72;1.58;;;;;;;;;;5036139;28;20566;-60
2023/07/03 05:44:12;;;;;;;3.40;1.42;;;;;;;;;;5037035;28;20171;-60
2023/07/03 05:46:37;;;;;;;2.28;1.00;;;;;;;;;;5036364;28;20095;-60
2023/07/03 05:49:03;;;;;;;6.70;1.73;;;;;;;;;;5039536;28;20122;-60
2023/07/03 05:51:29;;;;;;;2.70;1.00;;;;;;;;;;5040544;28;20845;-59
2023/07/03 05:53:55;;;;;;;2.55;1.30;;;;;;;;;;5032527;28;20052;-60
2023/07/03 05:56:21;;;;;;;4.10;1.30;;;;;;;;;;5037261;28;20036;-59
2023/07/03 05:58:48;;;;;;;2.65;1.17;;;;;;;;;;5041807;28;20394;-59
2023/07/03 06:01:14;;;;;;;2.67;0.90;;;;;;;;;;5032674;28;20053;-60
2023/07/03 06:03:42;;;;;;;2.85;1.10;;;;;;;;;;5037733;28;20045;-60
2023/07/03 06:06:08;;;;;;;3.97;1.25;;;;;;;;;;5034486;28;20057;-59
2023/07/03 06:08:34;;;;;;;6.18;1.42;;;;;;;;;;5034969;28;20040;-60
2023/07/03 06:11:00;;;;;;;1.17;0.60;;;;;;;;;;5034743;28;20057;-59
2023/07/03 06:13:26;;;;;;;0.90;0.60;;;;;;;;;;5039539;28;20094;-60
2023/07/03 06:15:52;;;;;;;2.25;0.90;;;;;;;;;;5037136;28;20072;-59
2023/07/03 06:18:18;;;;;;;2.47;0.93;;;;;;;;;;5035944;28;20063;-59
2023/07/03 06:20:44;;;;;;;1.02;0.77;;;;;;;;;;5033244;28;20565;-59
2023/07/03 06:23:10;;;;;;;3.67;1.10;;;;;;;;;;5037876;28;20033;-60
2023/07/03 06:25:36;;;;;;;3.38;1.15;;;;;;;;;;5034459;28;20044;-61
2023/07/03 06:28:05;;;;;;;2.15;0.90;;;;;;;;;;5034789;28;20060;-60
2023/07/03 06:30:31;;;;;;;4.53;1.02;;;;;;;;;;5032695;28;20036;-59
2023/07/03 06:32:57;;;;;;;1.90;0.80;;;;;;;;;;5035731;28;20037;-59
2023/07/03 06:35:24;;;;;;;2.75;1.08;;;;;;;;;;5034051;28;20048;-59
2023/07/03 06:37:52;;;;;;;1.52;0.70;;;;;;;;;;5034930;28;20037;-59
2023/07/03 06:40:19;;;;;;;1.70;0.70;;;;;;;;;;5032674;28;20043;-59
2023/07/03 06:42:45;;;;;;;0.65;0.30;;;;;;;;;;5033903;28;20037;-59
2023/07/03 06:45:11;;;;;;;2.70;0.85;;;;;;;;;;5033795;28;20059;-59
2023/07/03 06:47:37;;;;;;;1.80;0.90;;;;;;;;;;5032096;28;20045;-60
2023/07/03 06:50:04;;;;;;;1.25;0.88;;;;;;;;;;5038527;28;20128;-59
2023/07/03 06:52:30;;;;;;;1.13;0.57;;;;;;;;;;5033776;28;20043;-60
2023/07/03 06:54:56;;;;;;;1.38;0.73;;;;;;;;;;5033325;28;20128;-59
2023/07/03 06:57:22;;;;;;;2.28;0.73;;;;;;;;;;5036880;28;20172;-59
2023/07/03 06:59:50;;;;;;;2.10;0.70;;;;;;;;;;5037811;28;20065;-60
2023/07/03 07:02:16;;;;;;;1.85;0.90;;;;;;;;;;5036420;28;20041;-60
2023/07/03 07:04:44;;;;;;;5.03;1.35;;;;;;;;;;5038249;28;20045;-60
2023/07/03 07:07:10;;;;;;;2.20;0.90;;;;;;;;;;5038223;28;20051;-60
2023/07/03 07:09:36;;;;;;;2.47;0.65;;;;;;;;;;5041463;28;20040;-60
2023/07/03 07:12:02;;;;;;;2.00;1.15;;;;;;;;;;5039344;28;20065;-60
2023/07/03 07:14:28;;;;;;;2.17;0.70;;;;;;;;;;5040370;28;20501;-60
2023/07/03 07:16:54;;;;;;;1.25;0.70;;;;;;;;;;5037036;28;20068;-60
2023/07/03 07:19:20;;;;;;;1.88;0.75;;;;;;;;;;5040277;28;20056;-60
2023/07/03 07:21:46;;;;;;;1.45;0.70;;;;;;;;;;5040945;28;20045;-60
2023/07/03 07:24:14;;;;;;;1.38;0.60;;;;;;;;;;5039340;28;20048;-60
2023/07/03 07:26:40;;;;;;;1.35;0.60;;;;;;;;;;5041487;28;20045;-60
2023/07/03 07:29:06;;;;;;;1.95;0.80;;;;;;;;;;5042211;28;20050;-60
2023/07/03 07:31:36;;;;;;;1.58;0.75;;;;;;;;;;5036552;28;20033;-59
2023/07/03 07:34:03;;;;;;;2.45;0.93;;;;;;;;;;5044517;28;20045;-60
2023/07/03 07:36:30;;;;;;;3.13;0.93;;;;;;;;;;5042384;28;20465;-60
2023/07/03 07:38:56;;;;;;;2.20;0.80;;;;;;;;;;5045399;28;20060;-60
2023/07/03 07:41:24;;;;;;;3.40;0.80;;;;;;;;;;5041006;28;20041;-59
2023/07/03 07:43:51;;;;;;;2.25;0.80;;;;;;;;;;5041540;28;20079;-59
2023/07/03 07:46:17;;;;;;;2.33;0.90;;;;;;;;;;5039845;28;20421;-60
2023/07/03 07:48:45;;;;;;;1.65;0.70;;;;;;;;;;5040365;28;20485;-59
2023/07/03 07:51:12;;;;;;;2.95;1.00;;;;;;;;;;5036765;28;20057;-60
2023/07/03 07:53:38;;;;;;;1.48;0.90;;;;;;;;;;5039832;28;20103;-60
2023/07/03 07:56:04;;;;;;;1.02;0.55;;;;;;;;;;5033335;28;20041;-60
2023/07/03 07:58:30;;;;;;;1.05;0.50;;;;;;;;;;5034570;28;20053;-60
2023/07/03 08:00:57;;;;;;;1.02;0.40;;;;;;;;;;5035156;28;20048;-59
2023/07/03 08:03:23;;;;;;;2.90;0.85;;;;;;;;;;5037992;28;20036;-63
2023/07/03 08:05:49;;;;;;;1.98;0.52;;;;;;;;;;5031607;28;20041;-64
2023/07/03 08:08:15;;;;;;;2.30;1.33;;;;;;;;;;5047553;28;20086;-61
2023/07/03 08:10:42;;;;;;;3.38;0.70;;;;;;;;;;5040889;28;20426;-61
2023/07/03 08:13:08;;;;;;;1.15;0.60;;;;;;;;;;5041260;28;20048;-61
2023/07/03 08:15:34;;;;;;;2.63;0.73;;;;;;;;;;5038524;28;20092;-61
2023/07/03 08:18:00;;;;;;;2.35;0.80;;;;;;;;;;5043050;28;20106;-61
2023/07/03 08:20:26;;;;;;;1.30;0.55;;;;;;;;;;5034645;28;20045;-60
2023/07/03 08:22:52;;;;;;;1.90;0.77;;;;;;;;;;5034869;28;20029;-60
2023/07/03 08:25:18;;;;;;;2.42;0.73;;;;;;;;;;5048329;28;20382;-61
2023/07/03 08:27:47;;;;;;;1.63;0.45;;;;;;;;;;5036291;28;20545;-60
2023/07/03 08:30:14;;;;;;;2.92;0.70;;;;;;;;;;5043302;28;20421;-60
2023/07/03 08:32:40;;;;;;;1.58;0.70;;;;;;;;;;5038276;28;20045;-61
2023/07/03 08:35:07;;;;;;;0.93;0.35;;;;;;;;;;5037336;28;20353;-61
2023/07/03 08:37:33;;;;;;;4.60;0.70;;;;;;;;;;5033594;28;20057;-60
2023/07/03 08:39:59;;;;;;;1.40;0.60;;;;;;;;;;5040716;28;20465;-61
2023/07/03 08:42:36;;;;;;;3.35;1.13;;;;;;;;;;5042326;28;20612;-60
2023/07/03 08:45:04;;;;;;;2.25;0.88;;;;;;;;;;5041432;28;20032;-60
2023/07/03 08:47:31;;;;;;;1.33;0.57;;;;;;;;;;5041659;28;20487;-60
2023/07/03 08:49:58;;;;;;;1.30;0.40;;;;;;;;;;5042819;28;20120;-60
2023/07/03 08:52:26;;;;;;;3.67;0.98;;;;;;;;;;5035869;28;20048;-60
2023/07/03 08:54:53;;;;;;;3.17;0.70;;;;;;;;;;5032885;28;20443;-61
2023/07/03 08:57:20;;;;;;;1.40;0.57;;;;;;;;;;5041415;28;20032;-61
2023/07/03 08:59:47;;;;;;;1.95;0.65;;;;;;;;;;5045267;28;20041;-61
2023/07/03 09:02:25;;;;;;;1.95;0.73;;;;;;;;;;5034451;28;20278;-61
2023/07/03 09:04:58;;;;;;;1.33;0.68;;;;;;;;;;5033612;28;20086;-63
2023/07/03 09:07:27;;;;;;;2.55;0.88;;;;;;;;;;5035725;28;20041;-61
2023/07/03 09:10:04;;;;;;;8.30;1.00;;;;;;;;;;5037577;28;20136;-61
2023/07/03 09:12:39;;;;;;;3.15;1.35;;;;;;;;;;5038460;28;20056;-61
2023/07/03 09:15:10;;;;;;;1.25;0.63;;;;;;;;;;5038798;28;20247;-62
2023/07/03 09:17:36;;;;;;;2.58;1.00;;;;;;;;;;5044183;28;20405;-62
2023/07/03 09:20:04;;;;;;;3.08;0.75;;;;;;;;;;5036504;28;20379;-62
2023/07/03 09:22:42;;;;;;;2.33;1.10;;;;;;;;;;5031317;28;20114;-62
2023/07/03 09:25:11;;;;;;;3.38;0.90;;;;;;;;;;5045615;28;20432;-62
2023/07/03 09:27:38;;;;;;;3.63;1.23;;;;;;;;;;5041294;28;20509;-62
2023/07/03 09:30:06;;;;;;;2.78;1.05;;;;;;;;;;5037070;28;20456;-62
2023/07/03 09:32:32;;;;;;;1.27;0.57;;;;;;;;;;5036517;28;20037;-62
2023/07/03 09:35:12;;;;;;;2.78;1.00;;;;;;;;;;5039791;28;20216;-62
2023/07/03 09:37:39;;;;;;;3.28;1.10;;;;;;;;;;5034523;28;20364;-61
2023/07/03 09:40:09;;;;;;;2.95;1.45;;;;;;;;;;5045430;28;20052;-61
2023/07/03 09:42:36;;;;;;;2.47;1.13;;;;;;;;;;5037895;28;20037;-61
2023/07/03 09:45:03;;;;;;;3.67;1.10;;;;;;;;;;5034680;28;20123;-61
2023/07/03 09:47:29;;;;;;;1.92;0.77;;;;;;;;;;5035150;28;20052;-61
2023/07/03 09:50:01;;;;;;;3.45;1.45;;;;;;;;;;5039065;28;20048;-61
2023/07/03 09:52:27;;;;;;;2.75;1.02;;;;;;;;;;5037086;28;20569;-61
2023/07/03 09:54:54;;;;;;;3.80;1.30;;;;;;;;;;5042124;28;20088;-61
2023/07/03 09:57:24;;;;;;;5.22;1.33;;;;;;;;;;5043678;28;20045;-61
2023/07/03 09:59:51;;;;;;;3.17;0.80;;;;;;;;;;5030746;28;20053;-61
2023/07/03 10:02:22;;;;;;;4.35;1.00;;;;;;;;;;5037097;28;20071;-61
2023/07/03 10:04:48;;;;;;;2.70;0.55;;;;;;;;;;5038968;28;20494;-61
2023/07/03 10:07:15;;;;;;;1.25;0.93;;;;;;;;;;5039873;28;20520;-61
2023/07/03 10:09:41;;;;;;;1.58;0.80;;;;;;;;;;5044386;28;20130;-61
2023/07/03 10:12:16;;;;;;;1.52;0.60;;;;;;;;;;5040960;28;20094;-62
2023/07/03 10:14:52;;;;;;;2.40;0.88;;;;;;;;;;5040986;28;20045;-62
2023/07/03 10:17:24;;;;;;;3.25;0.70;;;;;;;;;;5044631;28;20049;-60
2023/07/03 10:19:54;;;;;;;1.98;0.90;;;;;;;;;;5040437;28;20524;-61
2023/07/03 10:22:20;;;;;;;1.30;0.95;;;;;;;;;;5037224;28;20048;-61
2023/07/03 10:24:47;;;;;;;2.33;0.70;;;;;;;;;;5044230;28;20044;-61
2023/07/03 10:27:14;;;;;;;7.72;1.30;;;;;;;;;;5037343;28;20304;-61
2023/07/03 10:29:42;;;;;;;3.40;0.90;;;;;;;;;;5043581;28;20052;-61
2023/07/03 10:32:16;;;;;;;2.75;0.80;;;;;;;;;;5037591;28;20419;-62
2023/07/03 10:34:52;;;;;;;4.07;1.25;;;;;;;;;;5040878;28;20552;-61
2023/07/03 10:37:18;;;;;;;2.58;0.95;;;;;;;;;;5028903;28;20405;-61
2023/07/03 10:39:44;;;;;;;4.45;1.13;;;;;;;;;;5041894;28;20044;-61
2023/07/03 10:42:13;;;;;;;3.65;1.30;;;;;;;;;;5038359;28;20037;-61
2023/07/03 10:44:40;;;;;;;2.40;0.93;;;;;;;;;;5041567;28;20049;-61
2023/07/03 10:47:16;;;;;;;4.03;0.77;;;;;;;;;;5038165;28;20049;-61
2023/07/03 10:49:43;;;;;;;1.77;0.93;;;;;;;;;;5038773;28;20042;-61
2023/07/03 10:52:27;;;;;;;1.52;0.32;;;;;;;;;;5032755;28;20521;-61
2023/07/03 10:54:53;;;;;;;3.65;0.70;;;;;;;;;;5035493;28;20090;-61
2023/07/03 10:57:22;;;;;;;2.03;1.05;;;;;;;;;;5034793;28;20076;-61
2023/07/03 10:59:52;;;;;;;4.25;0.93;;;;;;;;;;5034381;28;20108;-61
2023/07/03 11:02:27;;;;;;;4.15;1.00;;;;;;;;;;5041307;28;20489;-60
2023/07/03 11:04:52;;;;;;;3.20;0.85;;;;;;;;;;5044889;28;20055;-61
2023/07/03 11:07:25;;;;;;;2.90;0.80;;;;;;;;;;5031236;28;20120;-61
2023/07/03 11:10:06;;;;;;;2.05;0.65;;;;;;;;;;5044163;28;20342;-61
2023/07/03 11:12:38;;;;;;;4.32;1.15;;;;;;;;;;5037734;28;20052;-61
2023/07/03 11:15:27;;;;;;;3.25;0.90;;;;;;;;;;5043255;28;20044;-61
2023/07/03 11:17:56;;;;;;;4.55;1.10;;;;;;;;;;5024845;28;20041;-61
2023/07/03 11:20:26;;;;;;;5.03;1.02;;;;;;;;;;5024782;28;20033;-62
2023/07/03 11:22:58;;;;;;;2.90;1.15;;;;;;;;;;5032416;28;20513;-61
2023/07/03 11:25:36;;;;;;;3.65;1.02;;;;;;;;;;5042141;28;20397;-61
2023/07/03 11:28:15;;;;;;;2.08;0.82;;;;;;;;;;5038167;28;20037;-60
2023/07/03 11:30:42;;;;;;;1.92;1.08;;;;;;;;;;5035753;28;20046;-61
2023/07/03 11:33:09;;;;;;;2.25;0.80;;;;;;;;;;5034997;28;20305;-61
2023/07/03 11:35:35;;;;;;;3.53;1.13;;;;;;;;;;5035339;28;20029;-61
2023/07/03 11:38:05;;;;;;;2.15;0.98;;;;;;;;;;5034590;28;20095;-61
2023/07/03 11:40:38;;;;;;;2.15;0.85;;;;;;;;;;5043100;28;20040;-61
2023/07/03 11:43:23;;;;;;;3.28;1.13;;;;;;;;;;5038959;28;20045;-61
2023/07/03 11:46:09;;;;;;;2.03;0.80;;;;;;;;;;5031726;28;20036;-60
2023/07/03 11:48:38;;;;;;;1.80;0.63;;;;;;;;;;5031792;28;20038;-62
2023/07/03 11:51:12;;;;;;;2.28;0.95;;;;;;;;;;5025199;28;20494;-61
2023/07/03 11:53:46;;;;;;;1.88;1.00;;;;;;;;;;5037265;28;20401;-61
2023/07/03 11:56:35;;;;;;;5.05;1.20;;;;;;;;;;5032203;28;20080;-61
2023/07/03 11:59:04;;;;;;;4.40;0.93;;;;;;;;;;5025726;28;20069;-61
2023/07/03 12:01:30;;;;;;;1.67;0.50;;;;;;;;;;5040464;28;20033;-61
2023/07/03 12:03:59;;;;;;;1.30;0.85;;;;;;;;;;5040302;28;20448;-61
2023/07/03 12:06:40;;;;;;;2.67;1.00;;;;;;;;;;5030035;28;20045;-61
2023/07/03 12:09:21;;;;;;;0.97;0.67;;;;;;;;;;5043953;28;20088;-60
2023/07/03 12:12:00;;;;;;;2.30;0.70;;;;;;;;;;5047540;28;20053;-61
2023/07/03 12:17:22;;;;;;;4.47;0.93;;;;;;;;;;5043157;28;20059;-61
2023/07/03 12:19:54;;;;;;;3.83;0.98;;;;;;;;;;5047023;28;20455;-61
2023/07/03 12:22:21;;;;;;;1.50;0.60;;;;;;;;;;5036461;28;20049;-61
2023/07/03 12:24:47;;;;;;;0.88;0.47;;;;;;;;;;5040494;28;20048;-61
2023/07/03 12:27:14;;;;;;;1.10;0.50;;;;;;;;;;5030350;28;20088;-61
2023/07/03 12:29:47;;;;;;;2.30;1.02;;;;;;;;;;5042050;28;20045;-61
2023/07/03 12:32:13;;;;;;;2.22;1.00;;;;;;;;;;5032053;28;20041;-61
2023/07/03 12:34:40;;;;;;;6.03;1.25;;;;;;;;;;5040318;28;20332;-62
2023/07/03 12:37:14;;;;;;;2.95;0.95;;;;;;;;;;5046615;28;20041;-61
2023/07/03 12:39:42;;;;;;;4.60;0.90;;;;;;;;;;5047309;28;20067;-61
2023/07/03 12:42:09;;;;;;;3.42;1.13;;;;;;;;;;5038162;28;20033;-61
2023/07/03 12:44:36;;;;;;;4.03;0.88;;;;;;;;;;5039201;28;20044;-61
2023/07/03 12:47:09;;;;;;;2.90;1.10;;;;;;;;;;5040600;28;20073;-60
2023/07/03 12:49:47;;;;;;;3.70;1.20;;;;;;;;;;5041013;28;20083;-60
2023/07/03 12:52:14;;;;;;;3.22;1.20;;;;;;;;;;5027593;28;20250;-61
2023/07/03 12:54:40;;;;;;;1.90;0.68;;;;;;;;;;5043691;28;20097;-61
2023/07/03 12:57:09;;;;;;;4.40;1.13;;;;;;;;;;5044599;28;20095;-60
2023/07/03 12:59:35;;;;;;;2.80;0.98;;;;;;;;;;5041159;28;20044;-60
2023/07/03 13:02:01;;;;;;;1.33;0.90;;;;;;;;;;5028046;28;20049;-61
2023/07/03 13:04:29;;;;;;;2.92;0.98;;;;;;;;;;5026526;28;20132;-61
2023/07/03 13:06:55;;;;;;;10.93;0.93;;;;;;;;;;5043651;28;20049;-60
2023/07/03 13:09:21;;;;;;;1.70;0.93;;;;;;;;;;5046287;28;20178;-60
2023/07/03 13:11:47;;;;;;;4.88;0.80;;;;;;;;;;5042693;28;20072;-60
2023/07/03 13:14:15;;;;;;;3.65;0.70;;;;;;;;;;5028264;28;20044;-61
2023/07/03 13:16:42;;;;;;;4.00;0.85;;;;;;;;;;5032318;28;20048;-61
2023/07/03 13:19:08;;;;;;;2.50;0.90;;;;;;;;;;5031115;28;20394;-61
2023/07/03 13:21:35;;;;;;;6.93;0.90;;;;;;;;;;5026798;28;20123;-61
2023/07/03 13:24:06;;;;;;;3.08;0.90;;;;;;;;;;5026983;28;20517;-61
2023/07/03 13:26:32;;;;;;;5.93;0.90;;;;;;;;;;5027201;28;20037;-61
2023/07/03 13:29:00;;;;;;;0.57;0.40;;;;;;;;;;5040564;28;20041;-61
2023/07/03 13:31:26;;;;;;;1.63;0.45;;;;;;;;;;5046693;28;20520;-61
2023/07/03 13:34:01;;;;;;;2.00;0.60;;;;;;;;;;5047108;28;20041;-61
2023/07/03 13:36:33;;;;;;;1.50;0.47;;;;;;;;;;5046039;28;20056;-61
2023/07/03 13:39:05;;;;;;;2.45;0.50;;;;;;;;;;5046694;28;20509;-61
2023/07/03 13:41:31;;;;;;;3.88;0.80;;;;;;;;;;5046848;28;20045;-62
2023/07/03 13:43:57;;;;;;;2.33;0.98;;;;;;;;;;5046089;28;20121;-61
2023/07/03 13:46:24;;;;;;;1.52;0.52;;;;;;;;;;5046505;28;20051;-61
2023/07/03 13:48:50;;;;;;;1.23;0.60;;;;;;;;;;5033856;28;20629;-61
2023/07/03 13:51:16;;;;;;;2.10;0.93;;;;;;;;;;5026484;28;20127;-61
2023/07/03 13:53:42;;;;;;;0.65;0.47;;;;;;;;;;5025613;28;20041;-61
2023/07/03 13:56:08;;;;;;;0.35;0.20;;;;;;;;;;5026296;28;20045;-61
2023/07/03 13:58:34;;;;;;;0.57;0.40;;;;;;;;;;5025845;28;20038;-61
2023/07/03 14:01:00;;;;;;;1.27;0.50;;;;;;;;;;5030943;28;20047;-61
2023/07/03 14:03:26;;;;;;;0.95;0.20;;;;;;;;;;5029388;28;20041;-61
2023/07/03 14:05:52;;;;;;;0.68;0.40;;;;;;;;;;5026847;28;20445;-61
2023/07/03 14:08:18;;;;;;;1.42;0.40;;;;;;;;;;5044446;28;20468;-61
2023/07/03 14:10:45;;;;;;;0.40;0.20;;;;;;;;;;5044828;28;20055;-61
2023/07/03 14:13:11;;;;;;;0.30;0.20;;;;;;;;;;5037803;28;20124;-61
2023/07/03 14:15:37;;;;;;;0.45;0.30;;;;;;;;;;5045559;28;20087;-61
2023/07/03 14:18:04;;;;;;;0.38;0.20;;;;;;;;;;5045402;28;20124;-61
2023/07/03 14:20:30;;;;;;;0.20;0.10;;;;;;;;;;5045814;28;20413;-61
2023/07/03 14:22:56;;;;;;;0.95;0.43;;;;;;;;;;5045848;28;20055;-61
2023/07/03 14:25:23;;;;;;;1.02;0.30;;;;;;;;;;5045029;28;20055;-62
2023/07/03 14:27:49;;;;;;;1.05;0.47;;;;;;;;;;5046548;28;20504;-62
2023/07/03 14:30:15;;;;;;;1.13;0.40;;;;;;;;;;5046249;28;20626;-62
2023/07/03 14:32:41;;;;;;;2.97;0.68;;;;;;;;;;5046466;28;20516;-62
2023/07/03 14:35:07;;;;;;;0.55;0.40;;;;;;;;;;5044593;28;20049;-61
2023/07/03 14:37:37;;;;;;;0.90;0.65;;;;;;;;;;5037520;28;20493;-60
2023/07/03 14:40:03;;;;;;;1.98;0.73;;;;;;;;;;5042928;28;20257;-60
2023/07/03 14:42:30;;;;;;;1.17;0.40;;;;;;;;;;5035929;28;20048;-60
2023/07/03 14:44:57;;;;;;;2.22;0.73;;;;;;;;;;5032432;28;20460;-60
2023/07/03 14:47:23;;;;;;;2.10;0.55;;;;;;;;;;5034096;28;20041;-60
2023/07/03 14:49:50;;;;;;;2.08;0.75;;;;;;;;;;5044827;28;20448;-60